sensor_id;sensor_type;location;lat;lon;timestamp;temperature;humidity
58983;DHT22;44771;49.982;8.560;2022-07-05T00:02:38;13.80;99.90
58983;DHT22;44771;49.982;8.560;2022-07-05T00:07:40;13.80;99.90
58983;DHT22;44771;49.982;8.560;2022-07-05T00:12:42;13.70;99.90
58983;DHT22;44771;49.982;8.560;2022-07-05T00:17:46;13.70;99.90
58983;DHT22;44771;49.982;8.560;2022-07-05T00:22:47;13.50;99.90
58983;DHT22;44771;49.982;8.560;2022-07-05T00:27:49;13.50;99.90
58983;DHT22;44771;49.982;8.560;2022-07-05T00:32:52;13.20;99.90
58983;DHT22;44771;49.982;8.560;2022-07-05T00:37:54;12.90;99.90
58983;DHT22;44771;49.982;8.560;2022-07-05T00:42:56;12.70;99.90
58983;DHT22;44771;49.982;8.560;2022-07-05T00:47:59;12.50;99.90
58983;DHT22;44771;49.982;8.560;2022-07-05T00:53:01;12.50;99.90
58983;DHT22;44771;49.982;8.560;2022-07-05T00:58:03;12.40;99.90
58983;DHT22;44771;49.982;8.560;2022-07-05T01:03:06;12.30;99.90
58983;DHT22;44771;49.982;8.560;2022-07-05T01:08:08;12.10;99.90
58983;DHT22;44771;49.982;8.560;2022-07-05T01:13:10;12.00;99.90
58983;DHT22;44771;49.982;8.560;2022-07-05T01:18:13;11.90;99.90
58983;DHT22;44771;49.982;8.560;2022-07-05T01:23:17;11.90;99.90
58983;DHT22;44771;49.982;8.560;2022-07-05T01:28:19;11.70;99.90
58983;DHT22;44771;49.982;8.560;2022-07-05T01:33:27;11.60;99.90
58983;DHT22;44771;49.982;8.560;2022-07-05T01:38:30;11.50;99.90
58983;DHT22;44771;49.982;8.560;2022-07-05T01:43:32;11.40;99.90
58983;DHT22;44771;49.982;8.560;2022-07-05T01:48:35;11.40;99.90
58983;DHT22;44771;49.982;8.560;2022-07-05T01:53:41;11.30;99.90
58983;DHT22;44771;49.982;8.560;2022-07-05T01:58:45;11.20;99.90
58983;DHT22;44771;49.982;8.560;2022-07-05T02:03:47;11.20;99.90
58983;DHT22;44771;49.982;8.560;2022-07-05T02:09:01;11.20;99.90
58983;DHT22;44771;49.982;8.560;2022-07-05T02:14:03;11.10;99.90
58983;DHT22;44771;49.982;8.560;2022-07-05T02:19:06;10.90;99.90
58983;DHT22;44771;49.982;8.560;2022-07-05T02:24:10;10.90;99.90
58983;DHT22;44771;49.982;8.560;2022-07-05T02:29:12;10.70;99.90
58983;DHT22;44771;49.982;8.560;2022-07-05T02:34:13;10.50;99.90
58983;DHT22;44771;49.982;8.560;2022-07-05T02:39:17;10.40;99.90
58983;DHT22;44771;49.982;8.560;2022-07-05T02:44:20;10.20;99.90
58983;DHT22;44771;49.982;8.560;2022-07-05T02:49:22;10.10;99.90
58983;DHT22;44771;49.982;8.560;2022-07-05T02:54:38;10.10;99.90
58983;DHT22;44771;49.982;8.560;2022-07-05T02:59:39;10.10;99.90
58983;DHT22;44771;49.982;8.560;2022-07-05T03:04:43;10.20;99.90
58983;DHT22;44771;49.982;8.560;2022-07-05T03:09:46;10.20;99.90
58983;DHT22;44771;49.982;8.560;2022-07-05T03:14:48;10.30;99.90
58983;DHT22;44771;49.982;8.560;2022-07-05T03:19:50;10.20;99.90
58983;DHT22;44771;49.982;8.560;2022-07-05T03:24:53;10.40;99.90
58983;DHT22;44771;49.982;8.560;2022-07-05T03:29:55;10.20;99.90
58983;DHT22;44771;49.982;8.560;2022-07-05T03:34:57;10.10;99.90
58983;DHT22;44771;49.982;8.560;2022-07-05T03:40:00;10.00;99.90
58983;DHT22;44771;49.982;8.560;2022-07-05T03:45:02;10.00;99.90
58983;DHT22;44771;49.982;8.560;2022-07-05T03:50:05;9.90;99.90
58983;DHT22;44771;49.982;8.560;2022-07-05T03:55:09;9.80;99.90
58983;DHT22;44771;49.982;8.560;2022-07-05T04:00:11;9.90;99.90
58983;DHT22;44771;49.982;8.560;2022-07-05T04:05:13;10.00;99.90
58983;DHT22;44771;49.982;8.560;2022-07-05T04:10:17;10.00;99.90
58983;DHT22;44771;49.982;8.560;2022-07-05T04:20:35;10.30;99.90
58983;DHT22;44771;49.982;8.560;2022-07-05T04:25:38;10.50;99.90
58983;DHT22;44771;49.982;8.560;2022-07-05T04:30:40;10.60;99.90
58983;DHT22;44771;49.982;8.560;2022-07-05T04:35:42;10.80;99.90
58983;DHT22;44771;49.982;8.560;2022-07-05T04:40:45;11.00;99.90
58983;DHT22;44771;49.982;8.560;2022-07-05T04:45:47;11.20;99.90
58983;DHT22;44771;49.982;8.560;2022-07-05T04:50:57;11.50;99.90
58983;DHT22;44771;49.982;8.560;2022-07-05T04:56:00;11.70;99.90
58983;DHT22;44771;49.982;8.560;2022-07-05T05:01:02;12.00;99.90
58983;DHT22;44771;49.982;8.560;2022-07-05T05:06:04;12.40;99.90
58983;DHT22;44771;49.982;8.560;2022-07-05T05:11:07;12.80;99.90
58983;DHT22;44771;49.982;8.560;2022-07-05T05:16:09;13.10;99.90
58983;DHT22;44771;49.982;8.560;2022-07-05T05:21:11;13.50;99.90
58983;DHT22;44771;49.982;8.560;2022-07-05T05:26:14;13.70;99.90
58983;DHT22;44771;49.982;8.560;2022-07-05T05:31:16;13.90;99.90
58983;DHT22;44771;49.982;8.560;2022-07-05T05:36:18;14.10;99.90
58983;DHT22;44771;49.982;8.560;2022-07-05T05:42:00;14.20;99.90
58983;DHT22;44771;49.982;8.560;2022-07-05T05:53:03;14.40;99.90
58983;DHT22;44771;49.982;8.560;2022-07-05T06:03:25;14.70;99.90
58983;DHT22;44771;49.982;8.560;2022-07-05T06:08:47;14.80;99.90
58983;DHT22;44771;49.982;8.560;2022-07-05T06:13:52;15.10;99.90
58983;DHT22;44771;49.982;8.560;2022-07-05T06:19:10;15.30;99.90
58983;DHT22;44771;49.982;8.560;2022-07-05T06:24:12;15.60;99.90
58983;DHT22;44771;49.982;8.560;2022-07-05T06:29:28;15.80;99.90
58983;DHT22;44771;49.982;8.560;2022-07-05T06:34:37;16.10;99.90
58983;DHT22;44771;49.982;8.560;2022-07-05T06:39:39;16.30;99.90
58983;DHT22;44771;49.982;8.560;2022-07-05T06:44:41;16.70;99.90
58983;DHT22;44771;49.982;8.560;2022-07-05T06:49:54;17.00;99.90
58983;DHT22;44771;49.982;8.560;2022-07-05T06:55:08;17.40;99.90
58983;DHT22;44771;49.982;8.560;2022-07-05T07:00:11;17.80;99.90
58983;DHT22;44771;49.982;8.560;2022-07-05T07:05:35;18.00;99.90
58983;DHT22;44771;49.982;8.560;2022-07-05T07:10:57;18.40;99.90
58983;DHT22;44771;49.982;8.560;2022-07-05T07:15:59;18.70;99.20
58983;DHT22;44771;49.982;8.560;2022-07-05T07:21:02;18.90;98.60
58983;DHT22;44771;49.982;8.560;2022-07-05T07:26:04;19.10;99.20
58983;DHT22;44771;49.982;8.560;2022-07-05T07:31:06;19.40;96.90
58983;DHT22;44771;49.982;8.560;2022-07-05T07:36:09;19.80;95.90
58983;DHT22;44771;49.982;8.560;2022-07-05T07:41:16;20.00;95.50
58983;DHT22;44771;49.982;8.560;2022-07-05T08:08:20;21.70;86.00
58983;DHT22;44771;49.982;8.560;2022-07-05T08:30:40;23.00;73.40
58983;DHT22;44771;49.982;8.560;2022-07-05T08:35:42;23.30;70.50
58983;DHT22;44771;49.982;8.560;2022-07-05T08:40:51;23.70;68.80
58983;DHT22;44771;49.982;8.560;2022-07-05T08:45:56;23.90;63.30
58983;DHT22;44771;49.982;8.560;2022-07-05T08:51:05;24.10;60.60
58983;DHT22;44771;49.982;8.560;2022-07-05T08:56:12;24.10;61.80
58983;DHT22;44771;49.982;8.560;2022-07-05T09:01:25;24.40;58.90
58983;DHT22;44771;49.982;8.560;2022-07-05T09:06:27;24.70;59.50
58983;DHT22;44771;49.982;8.560;2022-07-05T09:11:35;25.10;57.30
58983;DHT22;44771;49.982;8.560;2022-07-05T09:16:39;25.30;57.10
58983;DHT22;44771;49.982;8.560;2022-07-05T09:21:42;25.60;53.40
58983;DHT22;44771;49.982;8.560;2022-07-05T09:26:45;25.80;54.50
58983;DHT22;44771;49.982;8.560;2022-07-05T09:31:49;25.50;54.80
58983;DHT22;44771;49.982;8.560;2022-07-05T09:36:53;25.50;56.70
58983;DHT22;44771;49.982;8.560;2022-07-05T09:42:10;26.00;53.30
58983;DHT22;44771;49.982;8.560;2022-07-05T09:47:34;25.60;52.60
58983;DHT22;44771;49.982;8.560;2022-07-05T09:52:42;25.30;54.90
58983;DHT22;44771;49.982;8.560;2022-07-05T09:57:45;25.40;53.40
58983;DHT22;44771;49.982;8.560;2022-07-05T10:02:53;24.80;53.30
58983;DHT22;44771;49.982;8.560;2022-07-05T10:07:58;25.50;53.20
58983;DHT22;44771;49.982;8.560;2022-07-05T10:13:04;26.20;52.60
58983;DHT22;44771;49.982;8.560;2022-07-05T10:18:13;26.80;50.60
58983;DHT22;44771;49.982;8.560;2022-07-05T10:23:19;26.80;50.40
58983;DHT22;44771;49.982;8.560;2022-07-05T10:28:21;26.70;48.20
58983;DHT22;44771;49.982;8.560;2022-07-05T10:33:27;27.10;48.00
58983;DHT22;44771;49.982;8.560;2022-07-05T10:38:30;27.60;49.30
58983;DHT22;44771;49.982;8.560;2022-07-05T10:43:32;27.10;49.70
58983;DHT22;44771;49.982;8.560;2022-07-05T10:54:03;26.50;48.50
58983;DHT22;44771;49.982;8.560;2022-07-05T10:59:07;27.20;46.90
58983;DHT22;44771;49.982;8.560;2022-07-05T11:04:28;27.60;46.50
58983;DHT22;44771;49.982;8.560;2022-07-05T11:09:32;26.60;45.40
58983;DHT22;44771;49.982;8.560;2022-07-05T11:15:19;27.10;43.50
58983;DHT22;44771;49.982;8.560;2022-07-05T11:20:30;27.80;41.60
58983;DHT22;44771;49.982;8.560;2022-07-05T11:25:35;28.20;43.40
58983;DHT22;44771;49.982;8.560;2022-07-05T11:30:51;28.20;43.60
58983;DHT22;44771;49.982;8.560;2022-07-05T11:35:55;28.50;44.50
58983;DHT22;44771;49.982;8.560;2022-07-05T11:41:10;28.70;43.90
58983;DHT22;44771;49.982;8.560;2022-07-05T11:46:14;28.80;42.90
58983;DHT22;44771;49.982;8.560;2022-07-05T11:51:37;28.90;42.30
58983;DHT22;44771;49.982;8.560;2022-07-05T11:56:40;29.10;44.00
58983;DHT22;44771;49.982;8.560;2022-07-05T12:01:43;27.80;45.80
58983;DHT22;44771;49.982;8.560;2022-07-05T12:06:45;28.10;47.00
58983;DHT22;44771;49.982;8.560;2022-07-05T12:11:51;28.70;43.80
58983;DHT22;44771;49.982;8.560;2022-07-05T12:17:11;28.30;44.90
58983;DHT22;44771;49.982;8.560;2022-07-05T12:22:13;28.90;42.40
58983;DHT22;44771;49.982;8.560;2022-07-05T12:27:16;28.00;43.30
58983;DHT22;44771;49.982;8.560;2022-07-05T12:32:18;26.90;46.00
58983;DHT22;44771;49.982;8.560;2022-07-05T12:37:20;27.50;47.40
58983;DHT22;44771;49.982;8.560;2022-07-05T12:42:34;28.10;43.10
58983;DHT22;44771;49.982;8.560;2022-07-05T12:47:36;27.30;43.80
58983;DHT22;44771;49.982;8.560;2022-07-05T12:52:57;26.50;44.90
58983;DHT22;44771;49.982;8.560;2022-07-05T12:58:00;26.50;44.90
58983;DHT22;44771;49.982;8.560;2022-07-05T13:03:02;26.60;47.40
58983;DHT22;44771;49.982;8.560;2022-07-05T13:08:04;26.80;46.50
58983;DHT22;44771;49.982;8.560;2022-07-05T13:13:07;26.50;44.90
58983;DHT22;44771;49.982;8.560;2022-07-05T13:18:09;26.10;46.40
58983;DHT22;44771;49.982;8.560;2022-07-05T13:23:11;25.70;46.60
58983;DHT22;44771;49.982;8.560;2022-07-05T13:28:14;26.50;45.90
58983;DHT22;44771;49.982;8.560;2022-07-05T13:33:16;27.70;44.60
58983;DHT22;44771;49.982;8.560;2022-07-05T13:38:18;28.70;43.40
58983;DHT22;44771;49.982;8.560;2022-07-05T13:43:21;28.90;41.70
58983;DHT22;44771;49.982;8.560;2022-07-05T13:48:23;28.10;42.40
58983;DHT22;44771;49.982;8.560;2022-07-05T13:53:25;27.70;44.00
58983;DHT22;44771;49.982;8.560;2022-07-05T13:58:28;28.00;43.30
58983;DHT22;44771;49.982;8.560;2022-07-05T14:03:30;27.20;41.30
58983;DHT22;44771;49.982;8.560;2022-07-05T14:08:32;26.80;42.50
58983;DHT22;44771;49.982;8.560;2022-07-05T14:13:35;27.30;43.70
58983;DHT22;44771;49.982;8.560;2022-07-05T14:18:37;28.30;41.70
58983;DHT22;44771;49.982;8.560;2022-07-05T14:23:39;28.90;40.10
58983;DHT22;44771;49.982;8.560;2022-07-05T14:28:42;28.30;41.50
58983;DHT22;44771;49.982;8.560;2022-07-05T14:33:46;26.90;41.70
58983;DHT22;44771;49.982;8.560;2022-07-05T14:38:48;26.30;44.80
58983;DHT22;44771;49.982;8.560;2022-07-05T14:43:51;26.10;46.10
58983;DHT22;44771;49.982;8.560;2022-07-05T14:48:53;26.50;46.90
58983;DHT22;44771;49.982;8.560;2022-07-05T14:53:55;27.10;43.20
58983;DHT22;44771;49.982;8.560;2022-07-05T14:58:58;27.60;45.20
58983;DHT22;44771;49.982;8.560;2022-07-05T15:04:03;28.00;43.00
58983;DHT22;44771;49.982;8.560;2022-07-05T15:09:06;27.60;42.70
58983;DHT22;44771;49.982;8.560;2022-07-05T15:14:22;26.90;43.80
58983;DHT22;44771;49.982;8.560;2022-07-05T15:19:30;26.50;47.40
58983;DHT22;44771;49.982;8.560;2022-07-05T15:29:41;26.20;48.90
58983;DHT22;44771;49.982;8.560;2022-07-05T15:34:43;27.10;47.70
58983;DHT22;44771;49.982;8.560;2022-07-05T15:39:45;27.50;45.30
58983;DHT22;44771;49.982;8.560;2022-07-05T15:44:48;26.90;46.30
58983;DHT22;44771;49.982;8.560;2022-07-05T15:50:00;27.10;48.50
58983;DHT22;44771;49.982;8.560;2022-07-05T15:55:03;27.20;50.20
58983;DHT22;44771;49.982;8.560;2022-07-05T16:00:07;27.50;46.80
58983;DHT22;44771;49.982;8.560;2022-07-05T16:05:09;26.90;49.20
58983;DHT22;44771;49.982;8.560;2022-07-05T16:10:11;27.30;48.90
58983;DHT22;44771;49.982;8.560;2022-07-05T16:15:34;27.60;48.30
58983;DHT22;44771;49.982;8.560;2022-07-05T16:20:36;27.50;48.20
58983;DHT22;44771;49.982;8.560;2022-07-05T16:25:41;27.50;49.80
58983;DHT22;44771;49.982;8.560;2022-07-05T16:30:44;27.20;48.90
58983;DHT22;44771;49.982;8.560;2022-07-05T16:35:46;27.00;49.10
58983;DHT22;44771;49.982;8.560;2022-07-05T16:40:48;26.80;49.40
58983;DHT22;44771;49.982;8.560;2022-07-05T16:45:51;26.60;49.80
58983;DHT22;44771;49.982;8.560;2022-07-05T16:50:53;26.40;50.10
58983;DHT22;44771;49.982;8.560;2022-07-05T16:56:01;26.20;50.40
58983;DHT22;44771;49.982;8.560;2022-07-05T17:01:05;26.00;51.60
58983;DHT22;44771;49.982;8.560;2022-07-05T17:06:08;25.90;51.60
58983;DHT22;44771;49.982;8.560;2022-07-05T17:11:11;25.70;51.20
58983;DHT22;44771;49.982;8.560;2022-07-05T17:16:14;25.50;52.20
58983;DHT22;44771;49.982;8.560;2022-07-05T17:21:16;25.40;51.40
58983;DHT22;44771;49.982;8.560;2022-07-05T17:26:21;25.30;54.00
58983;DHT22;44771;49.982;8.560;2022-07-05T17:31:24;25.10;52.40
58983;DHT22;44771;49.982;8.560;2022-07-05T17:36:26;24.90;52.40
58983;DHT22;44771;49.982;8.560;2022-07-05T17:41:28;24.80;52.60
58983;DHT22;44771;49.982;8.560;2022-07-05T17:46:31;24.60;52.90
58983;DHT22;44771;49.982;8.560;2022-07-05T17:51:33;24.50;53.80
58983;DHT22;44771;49.982;8.560;2022-07-05T17:57:19;24.40;52.40
58983;DHT22;44771;49.982;8.560;2022-07-05T18:02:25;24.10;52.80
58983;DHT22;44771;49.982;8.560;2022-07-05T18:07:27;23.90;53.10
58983;DHT22;44771;49.982;8.560;2022-07-05T18:12:29;23.80;53.20
58983;DHT22;44771;49.982;8.560;2022-07-05T18:17:36;23.70;53.40
58983;DHT22;44771;49.982;8.560;2022-07-05T18:22:38;23.50;53.30
58983;DHT22;44771;49.982;8.560;2022-07-05T18:27:40;23.50;53.30
58983;DHT22;44771;49.982;8.560;2022-07-05T18:32:44;23.30;53.80
58983;DHT22;44771;49.982;8.560;2022-07-05T18:37:46;23.20;53.60
58983;DHT22;44771;49.982;8.560;2022-07-05T18:42:49;23.10;53.90
58983;DHT22;44771;49.982;8.560;2022-07-05T18:47:52;22.90;54.30
58983;DHT22;44771;49.982;8.560;2022-07-05T18:52:55;22.80;54.30
58983;DHT22;44771;49.982;8.560;2022-07-05T18:57:58;22.70;55.00
58983;DHT22;44771;49.982;8.560;2022-07-05T19:03:10;22.60;55.10
58983;DHT22;44771;49.982;8.560;2022-07-05T19:08:17;22.40;55.70
58983;DHT22;44771;49.982;8.560;2022-07-05T19:13:19;22.20;55.60
58983;DHT22;44771;49.982;8.560;2022-07-05T19:18:26;22.10;55.80
58983;DHT22;44771;49.982;8.560;2022-07-05T19:23:28;22.00;55.90
58983;DHT22;44771;49.982;8.560;2022-07-05T19:28:30;21.90;56.30
58983;DHT22;44771;49.982;8.560;2022-07-05T19:33:34;21.80;57.20
58983;DHT22;44771;49.982;8.560;2022-07-05T19:48:59;20.60;66.50
58983;DHT22;44771;49.982;8.560;2022-07-05T19:54:01;20.00;65.20
58983;DHT22;44771;49.982;8.560;2022-07-05T19:59:12;19.90;64.20
58983;DHT22;44771;49.982;8.560;2022-07-05T20:04:18;19.60;65.90
58983;DHT22;44771;49.982;8.560;2022-07-05T20:09:20;19.50;66.00
58983;DHT22;44771;49.982;8.560;2022-07-05T20:14:22;19.40;66.60
58983;DHT22;44771;49.982;8.560;2022-07-05T20:19:25;19.40;63.30
58983;DHT22;44771;49.982;8.560;2022-07-05T20:24:27;19.40;65.20
58983;DHT22;44771;49.982;8.560;2022-07-05T20:29:28;19.30;65.80
58983;DHT22;44771;49.982;8.560;2022-07-05T20:34:32;19.20;65.80
58983;DHT22;44771;49.982;8.560;2022-07-05T20:39:34;19.20;65.10
58983;DHT22;44771;49.982;8.560;2022-07-05T20:44:36;19.10;65.40
58983;DHT22;44771;49.982;8.560;2022-07-05T20:49:39;19.10;65.60
58983;DHT22;44771;49.982;8.560;2022-07-05T20:54:41;18.90;66.50
58983;DHT22;44771;49.982;8.560;2022-07-05T20:59:43;18.90;64.70
58983;DHT22;44771;49.982;8.560;2022-07-05T21:04:46;18.90;66.40
58983;DHT22;44771;49.982;8.560;2022-07-05T21:09:49;18.80;66.80
58983;DHT22;44771;49.982;8.560;2022-07-05T21:14:50;18.60;66.40
58983;DHT22;44771;49.982;8.560;2022-07-05T21:19:55;18.50;67.70
58983;DHT22;44771;49.982;8.560;2022-07-05T21:24:57;18.50;67.80
58983;DHT22;44771;49.982;8.560;2022-07-05T21:29:59;18.40;67.90
58983;DHT22;44771;49.982;8.560;2022-07-05T21:35:03;18.30;68.10
58983;DHT22;44771;49.982;8.560;2022-07-05T21:40:06;18.30;67.90
58983;DHT22;44771;49.982;8.560;2022-07-05T21:45:09;18.10;69.00
58983;DHT22;44771;49.982;8.560;2022-07-05T21:50:13;18.00;69.70
58983;DHT22;44771;49.982;8.560;2022-07-05T21:55:14;17.80;70.80
58983;DHT22;44771;49.982;8.560;2022-07-05T22:00:18;17.70;72.10
58983;DHT22;44771;49.982;8.560;2022-07-05T22:05:22;17.60;72.80
58983;DHT22;44771;49.982;8.560;2022-07-05T22:10:24;17.40;74.20
58983;DHT22;44771;49.982;8.560;2022-07-05T22:15:26;17.30;75.30
58983;DHT22;44771;49.982;8.560;2022-07-05T22:20:30;17.20;76.00
58983;DHT22;44771;49.982;8.560;2022-07-05T22:25:32;17.20;77.10
58983;DHT22;44771;49.982;8.560;2022-07-05T22:30:33;17.00;79.60
58983;DHT22;44771;49.982;8.560;2022-07-05T22:35:37;16.90;81.80
58983;DHT22;44771;49.982;8.560;2022-07-05T22:40:38;16.70;85.00
58983;DHT22;44771;49.982;8.560;2022-07-05T22:45:40;16.60;87.30
58983;DHT22;44771;49.982;8.560;2022-07-05T22:50:43;16.60;89.20
58983;DHT22;44771;49.982;8.560;2022-07-05T22:55:45;16.60;90.20
58983;DHT22;44771;49.982;8.560;2022-07-05T23:00:47;16.70;90.50
58983;DHT22;44771;49.982;8.560;2022-07-05T23:05:50;16.70;90.80
58983;DHT22;44771;49.982;8.560;2022-07-05T23:10:55;16.80;92.30
58983;DHT22;44771;49.982;8.560;2022-07-05T23:15:57;16.70;92.00
58983;DHT22;44771;49.982;8.560;2022-07-05T23:21:00;16.80;92.40
58983;DHT22;44771;49.982;8.560;2022-07-05T23:26:02;16.70;93.70
58983;DHT22;44771;49.982;8.560;2022-07-05T23:31:04;16.60;94.20
58983;DHT22;44771;49.982;8.560;2022-07-05T23:36:07;16.60;94.40
58983;DHT22;44771;49.982;8.560;2022-07-05T23:41:09;16.60;95.40
58983;DHT22;44771;49.982;8.560;2022-07-05T23:46:11;16.50;95.60
58983;DHT22;44771;49.982;8.560;2022-07-05T23:51:14;16.50;95.80
58983;DHT22;44771;49.982;8.560;2022-07-05T23:56:16;16.50;96.40
